sensor_id;sensor_type;location;lat;lon;timestamp;pressure;altitude;pressure_sealevel;temperature;humidity
68197;BME280;55019;49.382;11.358;2023-07-16T00:00:29;96397.59;;;20.83;100.00
68197;BME280;55019;49.382;11.358;2023-07-16T00:02:56;96404.31;;;20.79;100.00
68197;BME280;55019;49.382;11.358;2023-07-16T00:05:22;96401.88;;;20.78;100.00
68197;BME280;55019;49.382;11.358;2023-07-16T00:07:48;96392.19;;;20.78;100.00
68197;BME280;55019;49.382;11.358;2023-07-16T00:10:14;96378.16;;;20.96;100.00
68197;BME280;55019;49.382;11.358;2023-07-16T00:12:39;96379.06;;;20.90;100.00
68197;BME280;55019;49.382;11.358;2023-07-16T00:15:06;96383.88;;;20.93;100.00
68197;BME280;55019;49.382;11.358;2023-07-16T00:17:33;96362.16;;;20.97;100.00
68197;BME280;55019;49.382;11.358;2023-07-16T00:19:59;96335.13;;;20.85;100.00
68197;BME280;55019;49.382;11.358;2023-07-16T00:22:24;96320.97;;;20.86;100.00
68197;BME280;55019;49.382;11.358;2023-07-16T00:24:50;96343.97;;;21.07;100.00
68197;BME280;55019;49.382;11.358;2023-07-16T00:27:16;96367.78;;;20.89;100.00
68197;BME280;55019;49.382;11.358;2023-07-16T00:29:41;96344.44;;;21.04;100.00
68197;BME280;55019;49.382;11.358;2023-07-16T00:32:07;96341.75;;;20.65;100.00
68197;BME280;55019;49.382;11.358;2023-07-16T00:34:33;96384.91;;;20.69;100.00
68197;BME280;55019;49.382;11.358;2023-07-16T00:37:00;96390.28;;;20.85;100.00
68197;BME280;55019;49.382;11.358;2023-07-16T00:39:30;96376.00;;;20.70;100.00
68197;BME280;55019;49.382;11.358;2023-07-16T00:41:56;96358.53;;;20.75;100.00
68197;BME280;55019;49.382;11.358;2023-07-16T00:44:22;96342.31;;;20.78;100.00
68197;BME280;55019;49.382;11.358;2023-07-16T00:46:48;96357.03;;;20.79;100.00
68197;BME280;55019;49.382;11.358;2023-07-16T00:49:15;96385.13;;;20.90;100.00
68197;BME280;55019;49.382;11.358;2023-07-16T00:51:41;96420.06;;;20.79;100.00
68197;BME280;55019;49.382;11.358;2023-07-16T00:54:07;96441.78;;;20.86;100.00
68197;BME280;55019;49.382;11.358;2023-07-16T00:56:35;96452.72;;;20.83;100.00
68197;BME280;55019;49.382;11.358;2023-07-16T00:59:02;96469.38;;;20.77;100.00
68197;BME280;55019;49.382;11.358;2023-07-16T01:01:28;96467.88;;;20.58;100.00
68197;BME280;55019;49.382;11.358;2023-07-16T01:03:54;96470.88;;;20.73;100.00
68197;BME280;55019;49.382;11.358;2023-07-16T01:09:15;96483.22;;;20.84;100.00
68197;BME280;55019;49.382;11.358;2023-07-16T01:11:45;96488.31;;;20.79;100.00
68197;BME280;55019;49.382;11.358;2023-07-16T01:14:13;96488.97;;;20.63;100.00
68197;BME280;55019;49.382;11.358;2023-07-16T01:16:40;96476.06;;;20.28;100.00
68197;BME280;55019;49.382;11.358;2023-07-16T01:19:06;96488.50;;;20.43;100.00
68197;BME280;55019;49.382;11.358;2023-07-16T01:26:59;96525.69;;;20.41;100.00
68197;BME280;55019;49.382;11.358;2023-07-16T01:29:35;96544.41;;;20.33;100.00
68197;BME280;55019;49.382;11.358;2023-07-16T01:32:07;96552.75;;;20.41;100.00
68197;BME280;55019;49.382;11.358;2023-07-16T01:34:36;96547.41;;;20.47;100.00
68197;BME280;55019;49.382;11.358;2023-07-16T01:37:02;96534.41;;;20.64;100.00
68197;BME280;55019;49.382;11.358;2023-07-16T01:39:29;96532.88;;;20.34;100.00
68197;BME280;55019;49.382;11.358;2023-07-16T01:41:55;96539.16;;;20.33;100.00
68197;BME280;55019;49.382;11.358;2023-07-16T01:44:21;96534.09;;;20.20;100.00
68197;BME280;55019;49.382;11.358;2023-07-16T01:47:15;96537.44;;;20.27;100.00
68197;BME280;55019;49.382;11.358;2023-07-16T01:49:39;96540.38;;;20.30;100.00
68197;BME280;55019;49.382;11.358;2023-07-16T01:52:06;96552.03;;;20.05;100.00
68197;BME280;55019;49.382;11.358;2023-07-16T01:54:32;96537.84;;;19.94;100.00
68197;BME280;55019;49.382;11.358;2023-07-16T01:56:58;96551.81;;;19.88;100.00
68197;BME280;55019;49.382;11.358;2023-07-16T01:59:24;96554.66;;;19.87;100.00
68197;BME280;55019;49.382;11.358;2023-07-16T02:01:49;96572.97;;;19.75;100.00
68197;BME280;55019;49.382;11.358;2023-07-16T02:04:15;96579.28;;;19.86;100.00
68197;BME280;55019;49.382;11.358;2023-07-16T02:06:41;96586.72;;;19.53;100.00
68197;BME280;55019;49.382;11.358;2023-07-16T02:09:08;96603.03;;;19.55;100.00
68197;BME280;55019;49.382;11.358;2023-07-16T02:11:34;96622.53;;;19.41;100.00
68197;BME280;55019;49.382;11.358;2023-07-16T02:13:59;96611.59;;;19.44;100.00
68197;BME280;55019;49.382;11.358;2023-07-16T02:16:25;96586.84;;;19.58;100.00
68197;BME280;55019;49.382;11.358;2023-07-16T02:18:51;96575.22;;;19.54;100.00
68197;BME280;55019;49.382;11.358;2023-07-16T02:21:18;96583.81;;;19.61;100.00
68197;BME280;55019;49.382;11.358;2023-07-16T02:23:43;96589.50;;;19.76;100.00
68197;BME280;55019;49.382;11.358;2023-07-16T02:26:09;96587.97;;;19.68;100.00
68197;BME280;55019;49.382;11.358;2023-07-16T02:28:34;96586.28;;;19.74;100.00
68197;BME280;55019;49.382;11.358;2023-07-16T02:31:01;96564.44;;;19.44;100.00
68197;BME280;55019;49.382;11.358;2023-07-16T02:33:27;96570.56;;;19.56;100.00
68197;BME280;55019;49.382;11.358;2023-07-16T02:35:53;96581.31;;;19.48;100.00
68197;BME280;55019;49.382;11.358;2023-07-16T02:38:18;96576.03;;;19.54;100.00
68197;BME280;55019;49.382;11.358;2023-07-16T02:40:45;96567.78;;;19.51;100.00
68197;BME280;55019;49.382;11.358;2023-07-16T02:43:11;96567.94;;;19.38;100.00
68197;BME280;55019;49.382;11.358;2023-07-16T02:45:37;96547.69;;;19.63;100.00
68197;BME280;55019;49.382;11.358;2023-07-16T02:48:04;96541.72;;;19.74;100.00
68197;BME280;55019;49.382;11.358;2023-07-16T02:50:33;96551.53;;;19.78;100.00
68197;BME280;55019;49.382;11.358;2023-07-16T02:52:59;96550.59;;;19.55;100.00
68197;BME280;55019;49.382;11.358;2023-07-16T02:55:25;96561.69;;;19.39;100.00
68197;BME280;55019;49.382;11.358;2023-07-16T02:57:50;96551.34;;;19.26;100.00
68197;BME280;55019;49.382;11.358;2023-07-16T03:00:16;96545.22;;;19.50;100.00
68197;BME280;55019;49.382;11.358;2023-07-16T03:02:42;96542.88;;;19.60;100.00
68197;BME280;55019;49.382;11.358;2023-07-16T03:05:07;96558.38;;;19.25;100.00
68197;BME280;55019;49.382;11.358;2023-07-16T03:07:34;96568.56;;;19.15;100.00
68197;BME280;55019;49.382;11.358;2023-07-16T03:10:00;96581.47;;;19.35;100.00
68197;BME280;55019;49.382;11.358;2023-07-16T03:12:25;96582.97;;;19.00;100.00
68197;BME280;55019;49.382;11.358;2023-07-16T03:14:51;96573.19;;;19.13;100.00
68197;BME280;55019;49.382;11.358;2023-07-16T03:17:20;96565.66;;;18.99;100.00
68197;BME280;55019;49.382;11.358;2023-07-16T03:19:48;96572.50;;;19.00;100.00
68197;BME280;55019;49.382;11.358;2023-07-16T03:22:14;96572.31;;;18.77;100.00
68197;BME280;55019;49.382;11.358;2023-07-16T03:24:39;96560.69;;;18.67;100.00
68197;BME280;55019;49.382;11.358;2023-07-16T03:27:06;96560.69;;;18.67;100.00
68197;BME280;55019;49.382;11.358;2023-07-16T03:29:33;96539.41;;;18.63;100.00
68197;BME280;55019;49.382;11.358;2023-07-16T03:31:59;96543.22;;;18.85;100.00
68197;BME280;55019;49.382;11.358;2023-07-16T03:34:25;96552.25;;;18.89;100.00
68197;BME280;55019;49.382;11.358;2023-07-16T03:36:51;96561.13;;;18.64;100.00
68197;BME280;55019;49.382;11.358;2023-07-16T03:39:17;96575.25;;;18.56;100.00
68197;BME280;55019;49.382;11.358;2023-07-16T03:41:43;96574.66;;;18.54;100.00
68197;BME280;55019;49.382;11.358;2023-07-16T03:44:09;96592.91;;;18.67;100.00
68197;BME280;55019;49.382;11.358;2023-07-16T03:46:36;96599.66;;;18.81;100.00
68197;BME280;55019;49.382;11.358;2023-07-16T03:49:02;96584.38;;;18.78;100.00
68197;BME280;55019;49.382;11.358;2023-07-16T03:51:28;96570.84;;;18.81;100.00
68197;BME280;55019;49.382;11.358;2023-07-16T03:53:53;96553.22;;;18.94;100.00
68197;BME280;55019;49.382;11.358;2023-07-16T03:56:20;96567.97;;;18.65;100.00
68197;BME280;55019;49.382;11.358;2023-07-16T03:58:46;96580.41;;;18.69;100.00
68197;BME280;55019;49.382;11.358;2023-07-16T04:01:13;96585.72;;;18.56;100.00
68197;BME280;55019;49.382;11.358;2023-07-16T04:03:40;96594.84;;;18.47;100.00
68197;BME280;55019;49.382;11.358;2023-07-16T04:06:08;96610.28;;;18.55;100.00
68197;BME280;55019;49.382;11.358;2023-07-16T04:08:37;96606.16;;;18.41;100.00
68197;BME280;55019;49.382;11.358;2023-07-16T04:11:06;96623.22;;;18.50;100.00
68197;BME280;55019;49.382;11.358;2023-07-16T04:13:32;96628.09;;;18.40;100.00
68197;BME280;55019;49.382;11.358;2023-07-16T04:15:58;96636.00;;;18.21;100.00
68197;BME280;55019;49.382;11.358;2023-07-16T04:18:24;96654.50;;;18.32;100.00
68197;BME280;55019;49.382;11.358;2023-07-16T04:20:50;96651.88;;;18.32;100.00
68197;BME280;55019;49.382;11.358;2023-07-16T04:23:16;96651.66;;;18.34;100.00
68197;BME280;55019;49.382;11.358;2023-07-16T04:25:42;96661.78;;;18.17;100.00
68197;BME280;55019;49.382;11.358;2023-07-16T04:28:08;96656.75;;;18.22;100.00
68197;BME280;55019;49.382;11.358;2023-07-16T04:30:33;96661.06;;;18.48;100.00
68197;BME280;55019;49.382;11.358;2023-07-16T04:32:59;96663.38;;;18.62;100.00
68197;BME280;55019;49.382;11.358;2023-07-16T04:35:25;96668.22;;;18.65;100.00
68197;BME280;55019;49.382;11.358;2023-07-16T04:37:50;96692.59;;;18.59;100.00
68197;BME280;55019;49.382;11.358;2023-07-16T04:40:16;96690.03;;;18.46;100.00
68197;BME280;55019;49.382;11.358;2023-07-16T04:42:41;96697.38;;;18.31;100.00
68197;BME280;55019;49.382;11.358;2023-07-16T04:45:07;96717.63;;;18.42;100.00
68197;BME280;55019;49.382;11.358;2023-07-16T04:47:33;96721.13;;;18.10;100.00
68197;BME280;55019;49.382;11.358;2023-07-16T04:49:59;96711.50;;;18.04;100.00
68197;BME280;55019;49.382;11.358;2023-07-16T04:52:24;96697.41;;;18.18;100.00
68197;BME280;55019;49.382;11.358;2023-07-16T04:54:50;96697.81;;;18.15;100.00
68197;BME280;55019;49.382;11.358;2023-07-16T04:57:16;96700.44;;;18.02;100.00
68197;BME280;55019;49.382;11.358;2023-07-16T04:59:41;96697.31;;;17.74;100.00
68197;BME280;55019;49.382;11.358;2023-07-16T05:02:07;96697.53;;;17.53;100.00
68197;BME280;55019;49.382;11.358;2023-07-16T05:04:36;96721.63;;;17.55;100.00
68197;BME280;55019;49.382;11.358;2023-07-16T05:07:02;96719.66;;;17.44;100.00
68197;BME280;55019;49.382;11.358;2023-07-16T05:09:28;96732.31;;;17.35;100.00
68197;BME280;55019;49.382;11.358;2023-07-16T05:11:54;96720.66;;;17.37;100.00
68197;BME280;55019;49.382;11.358;2023-07-16T05:14:20;96724.09;;;17.44;100.00
68197;BME280;55019;49.382;11.358;2023-07-16T05:16:45;96721.25;;;17.45;100.00
68197;BME280;55019;49.382;11.358;2023-07-16T05:19:11;96734.91;;;17.47;100.00
68197;BME280;55019;49.382;11.358;2023-07-16T05:21:37;96734.28;;;17.58;100.00
68197;BME280;55019;49.382;11.358;2023-07-16T05:24:03;96739.34;;;17.60;100.00
68197;BME280;55019;49.382;11.358;2023-07-16T05:26:29;96746.34;;;17.59;100.00
68197;BME280;55019;49.382;11.358;2023-07-16T05:28:54;96752.97;;;17.75;100.00
68197;BME280;55019;49.382;11.358;2023-07-16T05:31:20;96752.19;;;17.48;100.00
68197;BME280;55019;49.382;11.358;2023-07-16T05:33:46;96769.88;;;17.72;100.00
68197;BME280;55019;49.382;11.358;2023-07-16T05:36:11;96762.25;;;17.77;100.00
68197;BME280;55019;49.382;11.358;2023-07-16T05:38:37;96749.38;;;17.82;100.00
68197;BME280;55019;49.382;11.358;2023-07-16T05:41:03;96750.53;;;17.99;100.00
68197;BME280;55019;49.382;11.358;2023-07-16T05:43:30;96751.91;;;18.21;100.00
68197;BME280;55019;49.382;11.358;2023-07-16T05:45:56;96757.72;;;18.36;100.00
68197;BME280;55019;49.382;11.358;2023-07-16T05:48:22;96764.19;;;18.14;100.00
68197;BME280;55019;49.382;11.358;2023-07-16T05:50:47;96753.72;;;18.27;100.00
68197;BME280;55019;49.382;11.358;2023-07-16T05:53:13;96759.91;;;18.39;100.00
68197;BME280;55019;49.382;11.358;2023-07-16T05:55:39;96760.72;;;18.40;100.00
68197;BME280;55019;49.382;11.358;2023-07-16T05:58:05;96745.22;;;18.38;100.00
68197;BME280;55019;49.382;11.358;2023-07-16T06:00:31;96744.44;;;18.31;100.00
68197;BME280;55019;49.382;11.358;2023-07-16T06:02:58;96753.25;;;18.43;100.00
68197;BME280;55019;49.382;11.358;2023-07-16T06:05:23;96749.56;;;18.57;100.00
68197;BME280;55019;49.382;11.358;2023-07-16T06:07:51;96767.09;;;18.57;100.00
68197;BME280;55019;49.382;11.358;2023-07-16T06:10:17;96762.88;;;18.49;100.00
68197;BME280;55019;49.382;11.358;2023-07-16T06:12:43;96767.69;;;18.59;100.00
68197;BME280;55019;49.382;11.358;2023-07-16T06:15:09;96771.59;;;18.81;100.00
68197;BME280;55019;49.382;11.358;2023-07-16T06:17:34;96784.56;;;18.69;100.00
68197;BME280;55019;49.382;11.358;2023-07-16T06:20:02;96789.03;;;18.56;100.00
68197;BME280;55019;49.382;11.358;2023-07-16T06:22:28;96788.81;;;18.57;100.00
68197;BME280;55019;49.382;11.358;2023-07-16T06:24:54;96787.38;;;18.61;100.00
68197;BME280;55019;49.382;11.358;2023-07-16T06:27:20;96785.34;;;18.76;100.00
68197;BME280;55019;49.382;11.358;2023-07-16T06:29:46;96794.47;;;18.98;100.00
68197;BME280;55019;49.382;11.358;2023-07-16T06:32:12;96791.69;;;18.93;100.00
68197;BME280;55019;49.382;11.358;2023-07-16T06:34:37;96797.84;;;18.61;100.00
68197;BME280;55019;49.382;11.358;2023-07-16T06:37:03;96807.66;;;18.79;100.00
68197;BME280;55019;49.382;11.358;2023-07-16T06:39:30;96816.50;;;18.84;100.00
68197;BME280;55019;49.382;11.358;2023-07-16T06:41:56;96822.31;;;18.92;100.00
68197;BME280;55019;49.382;11.358;2023-07-16T06:44:22;96821.13;;;18.89;100.00
68197;BME280;55019;49.382;11.358;2023-07-16T06:46:48;96822.94;;;18.88;100.00
68197;BME280;55019;49.382;11.358;2023-07-16T06:49:13;96814.44;;;18.42;100.00
68197;BME280;55019;49.382;11.358;2023-07-16T06:51:39;96807.22;;;18.31;100.00
68197;BME280;55019;49.382;11.358;2023-07-16T06:54:05;96812.34;;;18.70;100.00
68197;BME280;55019;49.382;11.358;2023-07-16T06:56:30;96810.28;;;18.79;100.00
68197;BME280;55019;49.382;11.358;2023-07-16T06:58:56;96814.66;;;18.41;100.00
68197;BME280;55019;49.382;11.358;2023-07-16T07:01:21;96809.19;;;18.42;100.00
68197;BME280;55019;49.382;11.358;2023-07-16T07:03:47;96811.75;;;18.68;100.00
68197;BME280;55019;49.382;11.358;2023-07-16T07:06:13;96810.81;;;18.43;100.00
68197;BME280;55019;49.382;11.358;2023-07-16T07:08:38;96811.88;;;18.16;100.00
68197;BME280;55019;49.382;11.358;2023-07-16T07:11:04;96817.69;;;18.05;100.00
68197;BME280;55019;49.382;11.358;2023-07-16T07:13:30;96830.97;;;17.97;100.00
68197;BME280;55019;49.382;11.358;2023-07-16T07:15:56;96820.31;;;17.92;100.00
68197;BME280;55019;49.382;11.358;2023-07-16T07:18:22;96816.50;;;18.08;100.00
68197;BME280;55019;49.382;11.358;2023-07-16T07:20:47;96820.50;;;18.10;100.00
68197;BME280;55019;49.382;11.358;2023-07-16T07:23:15;96826.53;;;18.11;100.00
68197;BME280;55019;49.382;11.358;2023-07-16T07:25:40;96830.56;;;18.33;100.00
68197;BME280;55019;49.382;11.358;2023-07-16T07:28:06;96822.47;;;18.47;100.00
68197;BME280;55019;49.382;11.358;2023-07-16T07:30:32;96821.50;;;18.42;100.00
68197;BME280;55019;49.382;11.358;2023-07-16T07:32:58;96823.69;;;18.45;100.00
68197;BME280;55019;49.382;11.358;2023-07-16T07:35:24;96827.34;;;18.37;100.00
68197;BME280;55019;49.382;11.358;2023-07-16T07:37:49;96831.91;;;18.55;100.00
68197;BME280;55019;49.382;11.358;2023-07-16T07:40:15;96836.09;;;18.69;100.00
68197;BME280;55019;49.382;11.358;2023-07-16T07:42:41;96830.31;;;18.47;100.00
68197;BME280;55019;49.382;11.358;2023-07-16T07:45:07;96845.84;;;18.42;100.00
68197;BME280;55019;49.382;11.358;2023-07-16T07:47:33;96843.63;;;18.46;100.00
68197;BME280;55019;49.382;11.358;2023-07-16T07:49:58;96844.63;;;18.25;100.00
68197;BME280;55019;49.382;11.358;2023-07-16T07:52:27;96843.16;;;18.55;100.00
68197;BME280;55019;49.382;11.358;2023-07-16T07:54:52;96841.75;;;18.59;100.00
68197;BME280;55019;49.382;11.358;2023-07-16T07:57:19;96840.97;;;18.52;100.00
68197;BME280;55019;49.382;11.358;2023-07-16T07:59:45;96827.28;;;18.50;100.00
68197;BME280;55019;49.382;11.358;2023-07-16T08:02:11;96821.03;;;18.64;100.00
68197;BME280;55019;49.382;11.358;2023-07-16T08:04:36;96816.03;;;18.43;100.00
68197;BME280;55019;49.382;11.358;2023-07-16T08:07:17;96809.66;;;18.26;100.00
68197;BME280;55019;49.382;11.358;2023-07-16T08:09:43;96812.84;;;18.35;100.00
68197;BME280;55019;49.382;11.358;2023-07-16T08:12:09;96815.44;;;18.35;100.00
68197;BME280;55019;49.382;11.358;2023-07-16T08:14:35;96831.78;;;18.04;100.00
68197;BME280;55019;49.382;11.358;2023-07-16T08:17:00;96825.72;;;18.10;100.00
68197;BME280;55019;49.382;11.358;2023-07-16T08:19:26;96833.19;;;18.26;100.00
68197;BME280;55019;49.382;11.358;2023-07-16T08:21:52;96838.00;;;18.29;100.00
68197;BME280;55019;49.382;11.358;2023-07-16T08:24:17;96863.75;;;18.26;100.00
68197;BME280;55019;49.382;11.358;2023-07-16T08:26:44;96843.03;;;18.05;100.00
68197;BME280;55019;49.382;11.358;2023-07-16T08:29:10;96856.69;;;18.20;100.00
68197;BME280;55019;49.382;11.358;2023-07-16T08:31:36;96843.63;;;18.39;100.00
68197;BME280;55019;49.382;11.358;2023-07-16T08:34:01;96844.97;;;18.61;100.00
68197;BME280;55019;49.382;11.358;2023-07-16T08:36:27;96844.22;;;18.98;100.00
68197;BME280;55019;49.382;11.358;2023-07-16T08:38:53;96841.78;;;19.47;100.00
68197;BME280;55019;49.382;11.358;2023-07-16T08:41:19;96835.75;;;20.02;100.00
68197;BME280;55019;49.382;11.358;2023-07-16T08:43:46;96844.56;;;20.49;96.00
68197;BME280;55019;49.382;11.358;2023-07-16T08:46:13;96843.00;;;20.84;93.21
68197;BME280;55019;49.382;11.358;2023-07-16T08:48:39;96844.28;;;20.75;89.91
68197;BME280;55019;49.382;11.358;2023-07-16T08:51:05;96840.19;;;20.26;88.80
68197;BME280;55019;49.382;11.358;2023-07-16T08:53:33;96855.78;;;20.21;91.25
68197;BME280;55019;49.382;11.358;2023-07-16T08:55:58;96849.22;;;20.65;94.47
68197;BME280;55019;49.382;11.358;2023-07-16T08:58:24;96842.66;;;21.10;86.50
68197;BME280;55019;49.382;11.358;2023-07-16T09:00:51;96847.41;;;21.90;86.46
68197;BME280;55019;49.382;11.358;2023-07-16T09:03:17;96844.13;;;22.29;79.92
68197;BME280;55019;49.382;11.358;2023-07-16T09:05:44;96856.16;;;22.25;78.04
68197;BME280;55019;49.382;11.358;2023-07-16T09:08:10;96842.16;;;22.13;79.21
68197;BME280;55019;49.382;11.358;2023-07-16T09:10:36;96855.78;;;22.10;78.16
68197;BME280;55019;49.382;11.358;2023-07-16T09:13:02;96853.38;;;21.97;77.70
68197;BME280;55019;49.382;11.358;2023-07-16T09:15:29;96842.72;;;21.92;77.84
68197;BME280;55019;49.382;11.358;2023-07-16T09:17:55;96835.63;;;21.52;79.22
68197;BME280;55019;49.382;11.358;2023-07-16T09:20:21;96846.03;;;21.58;79.67
68197;BME280;55019;49.382;11.358;2023-07-16T09:22:49;96845.56;;;21.79;81.06
68197;BME280;55019;49.382;11.358;2023-07-16T09:25:15;96847.66;;;21.30;80.13
68197;BME280;55019;49.382;11.358;2023-07-16T09:27:41;96847.91;;;21.10;81.82
68197;BME280;55019;49.382;11.358;2023-07-16T09:30:15;96856.31;;;21.19;80.97
68197;BME280;55019;49.382;11.358;2023-07-16T09:32:41;96856.50;;;21.17;80.05
68197;BME280;55019;49.382;11.358;2023-07-16T09:35:10;96864.72;;;21.09;78.90
68197;BME280;55019;49.382;11.358;2023-07-16T09:37:37;96867.22;;;20.86;79.97
68197;BME280;55019;49.382;11.358;2023-07-16T09:40:08;96864.13;;;21.07;81.36
68197;BME280;55019;49.382;11.358;2023-07-16T09:42:39;96858.53;;;22.15;79.91
68197;BME280;55019;49.382;11.358;2023-07-16T09:45:07;96863.53;;;22.97;74.64
68197;BME280;55019;49.382;11.358;2023-07-16T09:47:34;96861.16;;;22.84;75.15
68197;BME280;55019;49.382;11.358;2023-07-16T09:50:01;96860.50;;;22.77;70.67
68197;BME280;55019;49.382;11.358;2023-07-16T09:52:27;96861.53;;;22.53;70.98
68197;BME280;55019;49.382;11.358;2023-07-16T09:54:55;96865.91;;;21.84;73.52
68197;BME280;55019;49.382;11.358;2023-07-16T09:57:23;96864.06;;;21.43;69.98
68197;BME280;55019;49.382;11.358;2023-07-16T09:59:52;96860.84;;;21.41;73.39
68197;BME280;55019;49.382;11.358;2023-07-16T10:02:20;96851.31;;;21.29;76.37
68197;BME280;55019;49.382;11.358;2023-07-16T10:04:46;96850.53;;;21.98;70.80
68197;BME280;55019;49.382;11.358;2023-07-16T10:07:23;96856.28;;;22.53;71.58
68197;BME280;55019;49.382;11.358;2023-07-16T10:09:56;96847.34;;;22.54;64.96
68197;BME280;55019;49.382;11.358;2023-07-16T10:12:24;96855.13;;;22.72;65.11
68197;BME280;55019;49.382;11.358;2023-07-16T10:14:54;96844.88;;;22.87;66.39
68197;BME280;55019;49.382;11.358;2023-07-16T10:17:26;96840.47;;;22.64;65.19
68197;BME280;55019;49.382;11.358;2023-07-16T10:19:56;96838.53;;;23.11;64.77
68197;BME280;55019;49.382;11.358;2023-07-16T10:22:39;96842.06;;;22.65;65.20
68197;BME280;55019;49.382;11.358;2023-07-16T10:27:44;96854.00;;;22.45;65.03
68197;BME280;55019;49.382;11.358;2023-07-16T10:30:10;96855.41;;;21.72;65.69
68197;BME280;55019;49.382;11.358;2023-07-16T10:32:36;96854.69;;;21.47;67.32
68197;BME280;55019;49.382;11.358;2023-07-16T10:35:03;96841.59;;;22.11;68.06
68197;BME280;55019;49.382;11.358;2023-07-16T10:37:29;96838.50;;;22.60;64.18
68197;BME280;55019;49.382;11.358;2023-07-16T10:39:57;96833.78;;;22.85;65.61
68197;BME280;55019;49.382;11.358;2023-07-16T10:42:23;96839.56;;;23.10;62.43
68197;BME280;55019;49.382;11.358;2023-07-16T10:44:50;96837.72;;;23.66;62.21
68197;BME280;55019;49.382;11.358;2023-07-16T10:47:29;96834.06;;;24.16;59.27
68197;BME280;55019;49.382;11.358;2023-07-16T10:49:55;96837.69;;;23.49;58.04
68197;BME280;55019;49.382;11.358;2023-07-16T10:52:22;96823.19;;;22.34;60.96
68197;BME280;55019;49.382;11.358;2023-07-16T10:54:51;96831.16;;;21.93;63.54
68197;BME280;55019;49.382;11.358;2023-07-16T10:57:26;96836.06;;;21.78;68.84
68197;BME280;55019;49.382;11.358;2023-07-16T10:59:53;96846.53;;;22.07;66.57
68197;BME280;55019;49.382;11.358;2023-07-16T11:02:20;96836.69;;;22.49;65.31
68197;BME280;55019;49.382;11.358;2023-07-16T11:04:47;96837.59;;;22.08;65.02
68197;BME280;55019;49.382;11.358;2023-07-16T11:07:14;96838.31;;;21.63;68.05
68197;BME280;55019;49.382;11.358;2023-07-16T11:09:48;96827.59;;;21.76;65.99
68197;BME280;55019;49.382;11.358;2023-07-16T11:12:16;96819.03;;;21.81;67.54
68197;BME280;55019;49.382;11.358;2023-07-16T11:14:44;96821.31;;;22.69;69.44
68197;BME280;55019;49.382;11.358;2023-07-16T11:17:11;96805.63;;;23.85;67.22
68197;BME280;55019;49.382;11.358;2023-07-16T11:19:37;96813.16;;;23.93;61.31
68197;BME280;55019;49.382;11.358;2023-07-16T11:22:06;96808.59;;;24.43;60.28
68197;BME280;55019;49.382;11.358;2023-07-16T11:24:43;96808.66;;;23.94;57.07
68197;BME280;55019;49.382;11.358;2023-07-16T11:27:29;96814.97;;;22.93;61.25
68197;BME280;55019;49.382;11.358;2023-07-16T11:29:56;96815.81;;;23.49;61.05
68197;BME280;55019;49.382;11.358;2023-07-16T11:32:30;96811.72;;;23.14;61.16
68197;BME280;55019;49.382;11.358;2023-07-16T11:35:01;96809.88;;;23.58;61.25
68197;BME280;55019;49.382;11.358;2023-07-16T11:37:28;96799.44;;;22.80;62.00
68197;BME280;55019;49.382;11.358;2023-07-16T11:40:05;96810.72;;;22.92;62.40
68197;BME280;55019;49.382;11.358;2023-07-16T11:42:33;96808.50;;;22.15;64.32
68197;BME280;55019;49.382;11.358;2023-07-16T11:44:59;96810.38;;;22.26;64.99
68197;BME280;55019;49.382;11.358;2023-07-16T11:47:26;96810.97;;;23.30;63.18
68197;BME280;55019;49.382;11.358;2023-07-16T11:49:52;96811.22;;;24.05;59.27
68197;BME280;55019;49.382;11.358;2023-07-16T11:52:26;96806.25;;;24.25;57.02
68197;BME280;55019;49.382;11.358;2023-07-16T11:54:53;96792.13;;;23.70;56.63
68197;BME280;55019;49.382;11.358;2023-07-16T11:57:19;96796.97;;;23.73;59.80
68197;BME280;55019;49.382;11.358;2023-07-16T11:59:44;96799.66;;;23.46;59.93
68197;BME280;55019;49.382;11.358;2023-07-16T12:02:11;96798.41;;;23.09;61.29
68197;BME280;55019;49.382;11.358;2023-07-16T12:04:37;96792.59;;;23.35;61.95
68197;BME280;55019;49.382;11.358;2023-07-16T12:07:02;96781.00;;;23.36;61.14
68197;BME280;55019;49.382;11.358;2023-07-16T12:09:28;96776.19;;;23.93;60.03
68197;BME280;55019;49.382;11.358;2023-07-16T12:11:54;96780.03;;;24.02;62.14
68197;BME280;55019;49.382;11.358;2023-07-16T12:14:20;96786.16;;;23.75;57.61
68197;BME280;55019;49.382;11.358;2023-07-16T12:16:46;96791.25;;;23.48;60.75
68197;BME280;55019;49.382;11.358;2023-07-16T12:19:11;96791.69;;;23.01;62.26
68197;BME280;55019;49.382;11.358;2023-07-16T12:21:37;96790.97;;;22.78;64.94
68197;BME280;55019;49.382;11.358;2023-07-16T12:24:03;96788.50;;;22.99;64.23
68197;BME280;55019;49.382;11.358;2023-07-16T12:26:29;96800.13;;;23.15;62.11
68197;BME280;55019;49.382;11.358;2023-07-16T12:28:54;96793.47;;;23.24;63.00
68197;BME280;55019;49.382;11.358;2023-07-16T12:31:20;96783.78;;;23.73;63.26
68197;BME280;55019;49.382;11.358;2023-07-16T12:33:47;96791.66;;;23.41;60.22
68197;BME280;55019;49.382;11.358;2023-07-16T12:36:13;96789.72;;;24.35;63.65
68197;BME280;55019;49.382;11.358;2023-07-16T12:38:39;96797.78;;;24.07;59.02
68197;BME280;55019;49.382;11.358;2023-07-16T12:41:06;96781.16;;;24.44;56.96
68197;BME280;55019;49.382;11.358;2023-07-16T12:43:32;96780.75;;;24.36;59.75
68197;BME280;55019;49.382;11.358;2023-07-16T12:46:04;96796.75;;;24.46;60.25
68197;BME280;55019;49.382;11.358;2023-07-16T12:48:31;96786.84;;;24.53;59.71
68197;BME280;55019;49.382;11.358;2023-07-16T12:50:57;96792.44;;;23.85;58.61